Time;durP1;ratioP1;P1;durP2;ratioP2;P2;SDS_P1;SDS_P2;PMS_P1;PMS_P2;Temp;Humidity;BMP_temperature;BMP_pressure;BME280_temperature;BME280_humidity;BME280_pressure;Samples;Min_cycle;Max_cycle;Signal;HPM_P1;HPM_P2
2023/07/28 00:02:41;;;;;;;2.22;1.73;;;;;;;;;;9976716;28;20045;-72
2023/07/28 00:07:35;;;;;;;6.60;1.80;;;;;;;;;;9975618;28;20073;-71
2023/07/28 00:12:27;;;;;;;3.60;1.80;;;;;;;;;;9978750;28;20047;-72
2023/07/28 00:17:19;;;;;;;2.70;2.17;;;;;;;;;;9971165;28;20050;-73
2023/07/28 00:22:11;;;;;;;7.05;2.10;;;;;;;;;;9978137;28;20129;-73
2023/07/28 00:27:03;;;;;;;4.28;2.08;;;;;;;;;;9974558;28;20050;-71
2023/07/28 00:31:54;;;;;;;4.07;1.80;;;;;;;;;;9983598;28;20644;-73
2023/07/28 00:36:46;;;;;;;5.10;2.08;;;;;;;;;;9991502;28;20463;-72
2023/07/28 00:41:38;;;;;;;6.25;1.95;;;;;;;;;;9981912;28;20491;-73
2023/07/28 00:46:30;;;;;;;2.67;1.83;;;;;;;;;;9959679;28;20035;-73
2023/07/28 00:51:23;;;;;;;4.78;1.83;;;;;;;;;;9947978;28;20050;-72
2023/07/28 00:56:16;;;;;;;5.05;2.15;;;;;;;;;;9949584;28;20054;-72
2023/07/28 01:01:07;;;;;;;2.42;2.17;;;;;;;;;;9927958;28;20461;-73
2023/07/28 01:06:29;;;;;;;3.38;1.70;;;;;;;;;;9954861;28;20043;-73
2023/07/28 01:11:21;;;;;;;4.55;2.40;;;;;;;;;;9975735;28;20574;-72
2023/07/28 01:16:13;;;;;;;4.05;2.53;;;;;;;;;;9997056;28;20065;-72
2023/07/28 01:21:09;;;;;;;3.05;1.83;;;;;;;;;;9977152;28;20065;-73
2023/07/28 01:26:11;;;;;;;2.13;1.60;;;;;;;;;;9983442;28;20042;-71
2023/07/28 01:31:04;;;;;;;2.67;1.88;;;;;;;;;;9991076;28;20101;-72
2023/07/28 01:35:56;;;;;;;2.92;1.90;;;;;;;;;;9972841;28;20133;-71
2023/07/28 01:40:47;;;;;;;3.67;1.90;;;;;;;;;;9990436;28;20077;-71
2023/07/28 01:45:39;;;;;;;3.67;2.10;;;;;;;;;;9990244;28;20089;-72
2023/07/28 01:50:31;;;;;;;4.30;2.13;;;;;;;;;;9988093;28;20640;-73
2023/07/28 01:55:23;;;;;;;3.25;1.63;;;;;;;;;;9989501;28;20097;-72
2023/07/28 02:00:15;;;;;;;4.05;1.80;;;;;;;;;;9989608;28;20050;-74
2023/07/28 02:05:11;;;;;;;5.93;2.72;;;;;;;;;;9988341;28;20042;-73
2023/07/28 02:10:03;;;;;;;4.97;2.28;;;;;;;;;;9988982;28;20133;-73
2023/07/28 02:14:55;;;;;;;3.83;1.92;;;;;;;;;;9988267;28;20100;-72
2023/07/28 02:19:48;;;;;;;2.67;1.77;;;;;;;;;;9987488;28;20051;-71
2023/07/28 02:24:39;;;;;;;4.30;1.70;;;;;;;;;;9988191;28;20466;-72
2023/07/28 02:29:31;;;;;;;3.00;1.95;;;;;;;;;;9988339;28;20065;-72
2023/07/28 02:34:24;;;;;;;3.33;2.20;;;;;;;;;;9985884;28;20092;-72
2023/07/28 02:39:16;;;;;;;2.38;1.67;;;;;;;;;;9989606;28;20074;-73
2023/07/28 02:44:08;;;;;;;6.53;1.77;;;;;;;;;;10014391;28;20038;-73
2023/07/28 02:49:00;;;;;;;4.90;1.88;;;;;;;;;;10003839;28;20380;-73
2023/07/28 02:53:52;;;;;;;3.03;1.60;;;;;;;;;;9987951;28;20512;-72
2023/07/28 02:58:44;;;;;;;2.53;1.95;;;;;;;;;;9985020;28;20073;-72
2023/07/28 03:03:36;;;;;;;2.40;1.67;;;;;;;;;;9987255;28;20066;-73
2023/07/28 03:08:28;;;;;;;2.88;1.77;;;;;;;;;;9987222;28;20046;-72
2023/07/28 03:13:36;;;;;;;4.80;2.03;;;;;;;;;;9985468;28;20046;-73
2023/07/28 03:18:28;;;;;;;3.72;1.70;;;;;;;;;;9986556;28;20034;-73
2023/07/28 03:23:20;;;;;;;6.22;2.40;;;;;;;;;;9984513;28;20074;-73
2023/07/28 03:28:12;;;;;;;6.07;2.00;;;;;;;;;;9987559;28;20365;-74
2023/07/28 03:33:03;;;;;;;4.53;1.55;;;;;;;;;;9971758;28;20168;-73
2023/07/28 03:37:56;;;;;;;1.92;1.65;;;;;;;;;;9967307;28;20211;-73
2023/07/28 03:42:47;;;;;;;3.00;1.70;;;;;;;;;;9948491;28;20046;-72
2023/07/28 03:47:39;;;;;;;11.68;1.90;;;;;;;;;;9966730;28;20031;-72
2023/07/28 03:52:31;;;;;;;3.90;2.00;;;;;;;;;;9972351;28;20105;-73
2023/07/28 03:57:23;;;;;;;4.85;2.25;;;;;;;;;;9990137;28;20471;-72
2023/07/28 04:02:15;;;;;;;3.08;2.50;;;;;;;;;;10007785;28;20112;-68
2023/07/28 04:07:07;;;;;;;8.32;2.65;;;;;;;;;;9989494;28;20042;-70
2023/07/28 04:11:59;;;;;;;4.28;3.03;;;;;;;;;;10003881;28;20104;-72
2023/07/28 04:16:50;;;;;;;5.20;3.03;;;;;;;;;;10021466;28;20507;-71
2023/07/28 04:21:42;;;;;;;7.57;3.38;;;;;;;;;;10020103;28;20046;-71
2023/07/28 04:26:35;;;;;;;6.25;3.55;;;;;;;;;;10021087;28;20057;-71
2023/07/28 04:31:28;;;;;;;4.55;3.85;;;;;;;;;;10021520;28;20472;-71
2023/07/28 04:36:30;;;;;;;5.22;3.20;;;;;;;;;;10022319;28;20041;-72
2023/07/28 04:41:22;;;;;;;9.30;3.92;;;;;;;;;;9984886;28;20053;-71
2023/07/28 04:46:17;;;;;;;6.78;3.30;;;;;;;;;;10023965;28;20052;-71
2023/07/28 04:51:15;;;;;;;5.57;4.38;;;;;;;;;;10024035;28;20128;-71
2023/07/28 04:56:29;;;;;;;6.07;4.00;;;;;;;;;;10025195;28;20368;-71
2023/07/28 05:01:21;;;;;;;6.07;3.47;;;;;;;;;;10023502;28;20478;-71
2023/07/28 05:06:14;;;;;;;18.02;4.60;;;;;;;;;;10029896;28;20380;-72
2023/07/28 05:11:05;;;;;;;4.68;3.00;;;;;;;;;;10033575;28;20050;-71
2023/07/28 05:15:57;;;;;;;11.60;7.22;;;;;;;;;;10018227;28;20077;-72
2023/07/28 05:21:19;;;;;;;5.38;3.65;;;;;;;;;;10035041;28;20391;-71
2023/07/28 05:26:10;;;;;;;7.28;4.32;;;;;;;;;;10031232;28;20062;-72
2023/07/28 05:31:06;;;;;;;5.63;3.35;;;;;;;;;;10032385;28;20097;-71
2023/07/28 05:36:03;;;;;;;9.43;4.43;;;;;;;;;;10015708;28;20037;-71
2023/07/28 05:41:02;;;;;;;6.13;4.97;;;;;;;;;;10028343;28;20053;-69
2023/07/28 05:45:56;;;;;;;9.73;5.17;;;;;;;;;;10004937;28;20046;-69
2023/07/28 05:50:51;;;;;;;8.10;5.68;;;;;;;;;;10027999;28;20042;-69
2023/07/28 05:55:43;;;;;;;5.55;4.85;;;;;;;;;;10028997;28;20503;-70
2023/07/28 06:00:35;;;;;;;6.78;6.07;;;;;;;;;;10028046;28;20076;-69
2023/07/28 06:05:27;;;;;;;10.95;6.63;;;;;;;;;;10027172;28;20050;-69
2023/07/28 06:10:18;;;;;;;11.93;7.28;;;;;;;;;;10016837;28;20137;-69
2023/07/28 06:15:10;;;;;;;11.40;8.77;;;;;;;;;;9981744;28;20050;-70
2023/07/28 06:20:04;;;;;;;12.13;6.95;;;;;;;;;;9984772;28;20042;-70
2023/07/28 06:24:55;;;;;;;9.90;5.97;;;;;;;;;;9984062;28;20500;-69
2023/07/28 06:29:47;;;;;;;10.13;5.88;;;;;;;;;;9985758;28;20053;-70
2023/07/28 06:34:39;;;;;;;11.90;4.57;;;;;;;;;;9984355;28;20088;-69
2023/07/28 06:39:31;;;;;;;13.60;5.53;;;;;;;;;;9984693;28;20054;-69
2023/07/28 06:44:23;;;;;;;7.28;5.38;;;;;;;;;;9987356;28;20058;-70
2023/07/28 06:49:15;;;;;;;7.65;3.45;;;;;;;;;;9982626;28;20043;-69
2023/07/28 06:54:12;;;;;;;8.85;3.80;;;;;;;;;;9982415;28;20046;-72
2023/07/28 06:59:06;;;;;;;6.38;3.97;;;;;;;;;;9983343;28;20058;-71
2023/07/28 07:04:07;;;;;;;9.27;4.68;;;;;;;;;;9981813;28;20137;-71
2023/07/28 07:08:59;;;;;;;5.38;2.97;;;;;;;;;;9984749;28;20125;-71
2023/07/28 07:13:50;;;;;;;4.07;3.15;;;;;;;;;;9982626;28;20064;-69
2023/07/28 07:18:43;;;;;;;3.60;2.75;;;;;;;;;;9984198;28;20077;-72
2023/07/28 07:23:36;;;;;;;8.75;3.30;;;;;;;;;;9983799;28;20042;-73
2023/07/28 07:28:28;;;;;;;8.60;3.30;;;;;;;;;;9983564;28;20133;-72
2023/07/28 07:33:20;;;;;;;6.32;3.40;;;;;;;;;;9984194;28;20086;-72
2023/07/28 07:38:12;;;;;;;8.02;4.22;;;;;;;;;;9983808;28;20058;-72
2023/07/28 07:43:04;;;;;;;5.57;3.58;;;;;;;;;;9982196;28;20117;-73
2023/07/28 07:47:56;;;;;;;8.88;3.85;;;;;;;;;;9983865;28;20480;-73
2023/07/28 07:52:47;;;;;;;13.32;3.05;;;;;;;;;;10006925;28;20045;-73
2023/07/28 07:57:40;;;;;;;4.57;2.85;;;;;;;;;;10023839;28;20121;-73
2023/07/28 08:02:32;;;;;;;9.88;3.92;;;;;;;;;;10023990;28;20491;-73
2023/07/28 08:07:24;;;;;;;8.38;3.50;;;;;;;;;;10023213;28;20341;-72
2023/07/28 08:12:16;;;;;;;7.65;2.85;;;;;;;;;;10001565;28;20062;-72
2023/07/28 08:17:11;;;;;;;8.43;3.58;;;;;;;;;;10010574;28;20054;-73
2023/07/28 08:22:03;;;;;;;11.32;3.63;;;;;;;;;;10016544;28;20046;-73
2023/07/28 08:26:55;;;;;;;7.20;2.72;;;;;;;;;;10022122;28;20480;-73
2023/07/28 08:31:47;;;;;;;6.70;3.25;;;;;;;;;;10023865;28;20060;-73
2023/07/28 08:36:39;;;;;;;3.95;2.20;;;;;;;;;;10023324;28;20042;-73
2023/07/28 08:41:30;;;;;;;5.78;2.38;;;;;;;;;;10024695;28;20116;-72
2023/07/28 08:46:23;;;;;;;9.30;2.40;;;;;;;;;;10027609;28;20049;-73
2023/07/28 08:51:15;;;;;;;9.43;3.13;;;;;;;;;;10028768;28;20096;-73
2023/07/28 08:56:07;;;;;;;8.90;2.63;;;;;;;;;;10001820;28;20057;-73
2023/07/28 09:01:01;;;;;;;6.25;2.65;;;;;;;;;;10027800;28;20057;-73
2023/07/28 09:06:00;;;;;;;4.15;2.60;;;;;;;;;;10027003;28;20042;-72
2023/07/28 09:10:54;;;;;;;5.60;2.22;;;;;;;;;;10027722;28;20538;-73
2023/07/28 09:15:46;;;;;;;4.75;2.40;;;;;;;;;;10025932;28;20431;-73
2023/07/28 09:20:43;;;;;;;7.40;2.85;;;;;;;;;;10027578;28;20105;-73
2023/07/28 09:25:37;;;;;;;8.05;2.47;;;;;;;;;;10026675;28;20038;-72
2023/07/28 09:30:49;;;;;;;6.30;2.85;;;;;;;;;;10015114;28;20075;-70
2023/07/28 09:35:49;;;;;;;12.10;3.17;;;;;;;;;;10026455;28;20038;-70
2023/07/28 09:40:41;;;;;;;4.95;3.53;;;;;;;;;;10025977;28;20046;-68
2023/07/28 09:45:34;;;;;;;9.30;3.08;;;;;;;;;;10019416;28;20092;-65
2023/07/28 09:50:32;;;;;;;7.25;3.35;;;;;;;;;;10013739;28;20046;-67
2023/07/28 09:55:24;;;;;;;11.40;3.50;;;;;;;;;;10025389;28;20362;-67
2023/07/28 10:00:18;;;;;;;5.63;3.30;;;;;;;;;;9997850;28;20141;-66
2023/07/28 10:05:10;;;;;;;6.05;3.00;;;;;;;;;;9983614;28;20510;-66
2023/07/28 10:10:07;;;;;;;7.13;3.20;;;;;;;;;;10016075;28;20750;-65
2023/07/28 10:15:03;;;;;;;11.63;2.88;;;;;;;;;;9983415;28;20120;-68
2023/07/28 10:19:55;;;;;;;8.18;2.40;;;;;;;;;;9981499;28;20050;-67
2023/07/28 10:24:55;;;;;;;8.15;3.00;;;;;;;;;;9985092;28;20046;-67
2023/07/28 10:29:58;;;;;;;7.90;3.10;;;;;;;;;;9984826;28;20042;-67
2023/07/28 10:35:06;;;;;;;6.43;2.47;;;;;;;;;;9983097;28;20156;-67
2023/07/28 10:40:23;;;;;;;4.25;2.42;;;;;;;;;;9985214;28;20050;-67
2023/07/28 10:45:15;;;;;;;3.50;2.28;;;;;;;;;;10007883;28;20135;-67
2023/07/28 10:50:12;;;;;;;6.85;3.25;;;;;;;;;;9996164;28;20046;-66
2023/07/28 10:55:04;;;;;;;6.72;2.58;;;;;;;;;;9982243;28;20456;-66
2023/07/28 11:00:00;;;;;;;5.57;2.53;;;;;;;;;;9984023;28;20038;-67
2023/07/28 11:04:52;;;;;;;6.75;2.80;;;;;;;;;;10009583;28;20073;-67
2023/07/28 11:09:44;;;;;;;6.65;2.95;;;;;;;;;;10022692;28;20100;-67
2023/07/28 11:14:36;;;;;;;8.57;2.60;;;;;;;;;;10018795;28;20038;-65
2023/07/28 11:19:28;;;;;;;5.05;2.45;;;;;;;;;;10022992;28;20484;-66
2023/07/28 11:24:20;;;;;;;4.80;3.03;;;;;;;;;;10025883;28;20439;-65
2023/07/28 11:29:12;;;;;;;6.68;2.85;;;;;;;;;;10025810;28;20070;-66
2023/07/28 11:34:16;;;;;;;6.15;2.63;;;;;;;;;;10024862;28;20209;-66
2023/07/28 11:39:08;;;;;;;6.00;3.17;;;;;;;;;;10022925;28;20437;-66
2023/07/28 11:44:00;;;;;;;9.30;3.22;;;;;;;;;;10015276;28;20056;-66
2023/07/28 11:48:52;;;;;;;9.70;3.65;;;;;;;;;;10023660;28;20064;-71
2023/07/28 11:53:44;;;;;;;4.28;2.63;;;;;;;;;;10023410;28;20041;-71
2023/07/28 11:58:36;;;;;;;6.60;2.67;;;;;;;;;;10023490;28;20058;-70
2023/07/28 12:03:30;;;;;;;4.15;2.30;;;;;;;;;;10024205;28;20108;-71
2023/07/28 12:08:36;;;;;;;3.20;2.10;;;;;;;;;;10023289;28;20353;-71
2023/07/28 12:13:28;;;;;;;4.72;2.50;;;;;;;;;;10019514;28;20069;-70
2023/07/28 12:18:29;;;;;;;6.97;2.72;;;;;;;;;;10024627;28;20379;-71
2023/07/28 12:23:24;;;;;;;4.50;2.53;;;;;;;;;;10023054;28;20072;-71
2023/07/28 12:28:18;;;;;;;4.47;3.08;;;;;;;;;;10010748;28;20038;-71
2023/07/28 12:33:11;;;;;;;14.25;3.88;;;;;;;;;;10022570;28;20383;-70
2023/07/28 12:38:06;;;;;;;5.85;2.67;;;;;;;;;;10020798;28;20038;-71
2023/07/28 12:43:03;;;;;;;8.68;2.53;;;;;;;;;;10010661;28;20061;-71
2023/07/28 12:47:57;;;;;;;3.03;2.42;;;;;;;;;;10018814;28;20468;-71
2023/07/28 12:52:50;;;;;;;5.38;2.97;;;;;;;;;;10018364;28;20115;-71
2023/07/28 12:57:48;;;;;;;7.05;2.97;;;;;;;;;;10018981;28;20136;-71
2023/07/28 13:02:41;;;;;;;3.60;2.60;;;;;;;;;;10017628;28;20049;-71
2023/07/28 13:07:33;;;;;;;4.07;2.58;;;;;;;;;;10018960;28;20104;-71
2023/07/28 13:12:27;;;;;;;5.32;2.75;;;;;;;;;;10017602;28;20440;-72
2023/07/28 13:17:22;;;;;;;4.53;2.40;;;;;;;;;;10020044;28;20054;-67
2023/07/28 13:22:16;;;;;;;3.38;2.33;;;;;;;;;;10014812;28;20054;-66
2023/07/28 13:27:07;;;;;;;6.95;2.42;;;;;;;;;;10025553;28;20383;-67
2023/07/28 13:32:00;;;;;;;6.22;2.40;;;;;;;;;;10027972;28;20089;-67
2023/07/28 13:36:52;;;;;;;4.88;2.72;;;;;;;;;;10025106;28;20167;-66
2023/07/28 13:41:44;;;;;;;4.70;2.53;;;;;;;;;;10015018;28;20054;-67
2023/07/28 13:46:35;;;;;;;5.63;2.20;;;;;;;;;;10022005;28;20088;-66
2023/07/28 13:51:27;;;;;;;7.30;2.65;;;;;;;;;;10027924;28;20050;-67
2023/07/28 13:56:39;;;;;;;8.13;3.08;;;;;;;;;;10014496;28;20409;-66
2023/07/28 14:01:51;;;;;;;5.70;2.72;;;;;;;;;;10029060;28;20407;-65
2023/07/28 14:06:43;;;;;;;5.10;2.53;;;;;;;;;;10028512;28;20369;-65
2023/07/28 14:11:35;;;;;;;6.50;2.10;;;;;;;;;;10025919;28;20046;-66
2023/07/28 14:16:27;;;;;;;4.10;2.42;;;;;;;;;;10028246;28;20038;-67
2023/07/28 14:21:19;;;;;;;3.97;2.70;;;;;;;;;;10013751;28;20076;-67
2023/07/28 14:26:11;;;;;;;4.45;2.13;;;;;;;;;;10025221;28;20129;-66
2023/07/28 14:31:03;;;;;;;6.18;2.03;;;;;;;;;;10017353;28;20149;-67
2023/07/28 14:35:55;;;;;;;7.00;2.40;;;;;;;;;;10013125;28;20049;-67
2023/07/28 14:40:48;;;;;;;8.85;3.13;;;;;;;;;;10023681;28;20063;-67
2023/07/28 14:45:42;;;;;;;5.10;2.97;;;;;;;;;;10015853;28;20360;-67
2023/07/28 14:50:33;;;;;;;3.95;2.47;;;;;;;;;;10022673;28;20038;-66
2023/07/28 14:55:26;;;;;;;8.75;2.63;;;;;;;;;;10023780;28;20065;-67
2023/07/28 15:00:18;;;;;;;7.93;3.03;;;;;;;;;;9984917;28;20051;-67
2023/07/28 15:05:10;;;;;;;5.18;2.50;;;;;;;;;;9980710;28;20061;-67
2023/07/28 15:10:03;;;;;;;6.72;2.50;;;;;;;;;;9981584;28;20129;-67
2023/07/28 15:14:55;;;;;;;8.27;2.45;;;;;;;;;;9980221;28;20198;-67
2023/07/28 15:19:46;;;;;;;8.68;2.13;;;;;;;;;;9982917;28;20125;-67
2023/07/28 15:24:38;;;;;;;10.52;3.00;;;;;;;;;;9975399;28;20369;-66
2023/07/28 15:29:31;;;;;;;5.60;1.98;;;;;;;;;;9977630;28;20049;-67
2023/07/28 15:34:23;;;;;;;3.90;2.33;;;;;;;;;;9973943;28;20062;-66
2023/07/28 15:39:14;;;;;;;6.75;2.40;;;;;;;;;;9991148;28;20050;-69
2023/07/28 15:44:06;;;;;;;4.72;3.03;;;;;;;;;;10021352;28;20049;-70
2023/07/28 15:48:58;;;;;;;3.80;2.40;;;;;;;;;;10025408;28;20358;-70
2023/07/28 15:53:50;;;;;;;4.18;2.05;;;;;;;;;;10025157;28;20057;-70
2023/07/28 15:58:44;;;;;;;4.05;1.90;;;;;;;;;;10025044;28;20049;-69
2023/07/28 16:03:35;;;;;;;3.55;1.90;;;;;;;;;;10024216;28;20091;-70
2023/07/28 16:08:27;;;;;;;3.38;1.90;;;;;;;;;;10025018;28;20048;-69
2023/07/28 16:13:21;;;;;;;8.05;2.38;;;;;;;;;;10023556;28;20050;-69
2023/07/28 16:18:13;;;;;;;3.42;2.05;;;;;;;;;;10024371;28;20034;-69
2023/07/28 16:23:05;;;;;;;8.13;2.58;;;;;;;;;;10023686;28;20086;-69
2023/07/28 16:27:56;;;;;;;6.30;2.15;;;;;;;;;;10020666;28;20050;-69
2023/07/28 16:32:48;;;;;;;5.95;2.35;;;;;;;;;;10024192;28;20392;-69
2023/07/28 16:37:40;;;;;;;5.13;1.95;;;;;;;;;;10024788;28;20248;-70
2023/07/28 16:42:32;;;;;;;4.60;1.77;;;;;;;;;;10019343;28;20104;-69
2023/07/28 16:47:24;;;;;;;6.03;2.15;;;;;;;;;;10023894;28;20050;-69
2023/07/28 16:52:16;;;;;;;6.70;2.58;;;;;;;;;;10011005;28;20133;-69
2023/07/28 16:57:08;;;;;;;3.20;2.30;;;;;;;;;;10018470;28;20054;-69
2023/07/28 17:02:00;;;;;;;3.30;2.45;;;;;;;;;;10030140;28;20049;-69
2023/07/28 17:06:52;;;;;;;9.32;2.58;;;;;;;;;;10031104;28;20046;-69
2023/07/28 17:11:44;;;;;;;4.28;1.95;;;;;;;;;;10031024;28;20104;-69
2023/07/28 17:16:36;;;;;;;2.60;2.30;;;;;;;;;;10004123;28;20358;-69
2023/07/28 17:21:27;;;;;;;5.43;2.38;;;;;;;;;;10018293;28;20049;-69
2023/07/28 17:26:19;;;;;;;4.07;3.08;;;;;;;;;;10031172;28;20368;-69
2023/07/28 17:31:11;;;;;;;7.53;3.50;;;;;;;;;;10028820;28;20050;-69
2023/07/28 17:36:03;;;;;;;4.65;2.22;;;;;;;;;;10029863;28;20494;-68
2023/07/28 17:40:55;;;;;;;5.30;2.65;;;;;;;;;;10029525;28;20042;-69
2023/07/28 17:45:47;;;;;;;8.73;3.05;;;;;;;;;;10030200;28;20046;-69
2023/07/28 17:50:39;;;;;;;4.35;2.00;;;;;;;;;;10027993;28;20080;-66
2023/07/28 17:55:31;;;;;;;8.00;3.17;;;;;;;;;;10029383;28;20491;-69
2023/07/28 18:00:23;;;;;;;5.35;2.83;;;;;;;;;;10029154;28;20073;-68
2023/07/28 18:05:15;;;;;;;4.78;2.55;;;;;;;;;;10028812;28;20042;-69
2023/07/28 18:10:07;;;;;;;5.82;2.95;;;;;;;;;;10027540;28;20411;-67
2023/07/28 18:14:59;;;;;;;7.30;3.13;;;;;;;;;;10028572;28;20042;-68
2023/07/28 18:19:51;;;;;;;3.30;2.50;;;;;;;;;;10028646;28;20054;-67
2023/07/28 18:24:43;;;;;;;5.43;3.00;;;;;;;;;;10028177;28;20367;-68
2023/07/28 18:29:35;;;;;;;2.97;2.67;;;;;;;;;;10028139;28;20664;-67
2023/07/28 18:34:27;;;;;;;5.72;3.10;;;;;;;;;;10027987;28;20511;-67
2023/07/28 18:39:20;;;;;;;2.78;2.40;;;;;;;;;;10028016;28;20045;-67
2023/07/28 18:44:12;;;;;;;4.85;2.90;;;;;;;;;;10027391;28;20365;-67
2023/07/28 18:49:04;;;;;;;11.40;3.15;;;;;;;;;;10026858;28;20050;-66
2023/07/28 18:53:55;;;;;;;5.38;2.97;;;;;;;;;;10027534;28;20050;-67
2023/07/28 18:58:47;;;;;;;3.75;3.15;;;;;;;;;;10027181;28;20272;-67
2023/07/28 19:03:39;;;;;;;6.90;2.95;;;;;;;;;;10026783;28;20433;-67
2023/07/28 19:08:32;;;;;;;4.07;2.70;;;;;;;;;;10026466;28;20053;-68
2023/07/28 19:13:26;;;;;;;4.88;2.97;;;;;;;;;;10027225;28;20046;-66
2023/07/28 19:18:18;;;;;;;3.00;2.60;;;;;;;;;;10025834;28;20046;-67
2023/07/28 19:23:10;;;;;;;4.15;3.13;;;;;;;;;;10026162;28;20136;-67
2023/07/28 19:28:02;;;;;;;4.55;2.88;;;;;;;;;;10026685;28;20077;-67
2023/07/28 19:32:54;;;;;;;6.28;3.97;;;;;;;;;;10024644;28;20057;-67
2023/07/28 19:37:46;;;;;;;5.20;2.88;;;;;;;;;;10025514;28;20140;-68
2023/07/28 19:42:38;;;;;;;6.28;3.30;;;;;;;;;;10023214;28;20060;-67
2023/07/28 19:47:30;;;;;;;7.10;2.90;;;;;;;;;;10021793;28;20448;-61
2023/07/28 19:52:22;;;;;;;4.88;2.95;;;;;;;;;;9983870;28;20054;-65
2023/07/28 19:57:13;;;;;;;6.95;2.95;;;;;;;;;;9992050;28;20053;-65
2023/07/28 20:02:05;;;;;;;4.10;2.83;;;;;;;;;;10012067;28;20074;-65
2023/07/28 20:06:58;;;;;;;5.10;3.83;;;;;;;;;;9990967;28;20050;-65
2023/07/28 20:11:50;;;;;;;4.18;3.33;;;;;;;;;;10017230;28;20100;-65
2023/07/28 20:16:42;;;;;;;5.03;3.10;;;;;;;;;;9991544;28;20455;-65
2023/07/28 20:21:34;;;;;;;4.43;2.63;;;;;;;;;;10014012;28;20061;-67
2023/07/28 20:26:26;;;;;;;5.10;2.85;;;;;;;;;;10020464;28;20468;-65
2023/07/28 20:31:19;;;;;;;5.72;3.03;;;;;;;;;;10008714;28;20060;-65
2023/07/28 20:36:11;;;;;;;4.30;2.75;;;;;;;;;;9984725;28;20048;-65
2023/07/28 20:41:03;;;;;;;3.72;2.70;;;;;;;;;;9980415;28;20084;-67
2023/07/28 20:45:55;;;;;;;4.35;2.78;;;;;;;;;;9987977;28;20038;-65
2023/07/28 20:50:46;;;;;;;4.18;2.85;;;;;;;;;;9986763;28;20468;-63
2023/07/28 20:55:38;;;;;;;5.00;2.40;;;;;;;;;;10014502;28;20133;-63
2023/07/28 21:00:30;;;;;;;5.22;3.13;;;;;;;;;;9975267;28;20058;-63
2023/07/28 21:05:22;;;;;;;9.10;4.60;;;;;;;;;;9998720;28;20107;-63
2023/07/28 21:10:14;;;;;;;7.18;2.97;;;;;;;;;;10018190;28;20046;-66
2023/07/28 21:15:06;;;;;;;4.53;2.95;;;;;;;;;;10012937;28;20042;-63
2023/07/28 21:19:58;;;;;;;4.63;2.67;;;;;;;;;;9989133;28;20095;-66
2023/07/28 21:24:50;;;;;;;3.95;2.80;;;;;;;;;;10014588;28;20053;-66
2023/07/28 21:29:42;;;;;;;4.43;3.10;;;;;;;;;;9995569;28;20049;-64
2023/07/28 21:34:34;;;;;;;12.65;4.20;;;;;;;;;;9992669;28;20038;-66
2023/07/28 21:39:25;;;;;;;11.93;4.35;;;;;;;;;;10022368;28;20108;-66
2023/07/28 21:44:17;;;;;;;4.28;2.90;;;;;;;;;;10005748;28;20049;-66
2023/07/28 21:49:09;;;;;;;4.32;2.97;;;;;;;;;;10005687;28;20042;-67
2023/07/28 21:54:01;;;;;;;15.73;3.72;;;;;;;;;;10002864;28;20041;-68
2023/07/28 21:58:54;;;;;;;7.57;3.88;;;;;;;;;;9974604;28;20117;-69
2023/07/28 22:03:46;;;;;;;6.97;2.95;;;;;;;;;;9994924;28;20046;-73
2023/07/28 22:08:38;;;;;;;2.95;2.72;;;;;;;;;;9998138;28;20098;-72
2023/07/28 22:13:31;;;;;;;3.17;2.75;;;;;;;;;;10014425;28;20038;-72
2023/07/28 22:18:23;;;;;;;3.97;2.95;;;;;;;;;;10015375;28;20104;-72
2023/07/28 22:23:14;;;;;;;5.18;3.00;;;;;;;;;;9989286;28;20052;-72
2023/07/28 22:28:06;;;;;;;4.22;2.83;;;;;;;;;;9996721;28;20069;-69
2023/07/28 22:32:58;;;;;;;5.68;2.67;;;;;;;;;;9999128;28;20057;-69
2023/07/28 22:37:50;;;;;;;8.25;4.18;;;;;;;;;;10005044;28;20050;-72
2023/07/28 22:42:42;;;;;;;7.78;2.97;;;;;;;;;;10003342;28;20050;-72
2023/07/28 22:47:34;;;;;;;4.72;3.05;;;;;;;;;;10020531;28;20038;-72
2023/07/28 22:52:25;;;;;;;3.05;2.63;;;;;;;;;;10025139;28;20065;-72
2023/07/28 22:57:17;;;;;;;4.53;2.72;;;;;;;;;;10023903;28;20049;-72
2023/07/28 23:02:09;;;;;;;4.57;2.45;;;;;;;;;;10024166;28;20136;-73
2023/07/28 23:07:01;;;;;;;3.40;2.70;;;;;;;;;;10023823;28;20057;-72
2023/07/28 23:11:53;;;;;;;4.22;2.65;;;;;;;;;;10023833;28;20049;-71
2023/07/28 23:16:45;;;;;;;5.18;2.42;;;;;;;;;;10013732;28;20085;-72
2023/07/28 23:21:36;;;;;;;8.68;2.70;;;;;;;;;;10010970;28;20527;-70
2023/07/28 23:26:30;;;;;;;6.53;3.03;;;;;;;;;;10020792;28;20038;-71
2023/07/28 23:31:23;;;;;;;5.90;3.53;;;;;;;;;;9984610;28;20038;-72
2023/07/28 23:36:15;;;;;;;3.33;2.50;;;;;;;;;;10014595;28;20046;-72
2023/07/28 23:41:07;;;;;;;6.18;3.17;;;;;;;;;;10012756;28;20085;-71
2023/07/28 23:45:59;;;;;;;3.53;2.38;;;;;;;;;;10026934;28;20464;-71
2023/07/28 23:50:51;;;;;;;3.67;2.53;;;;;;;;;;9974024;28;20129;-72
2023/07/28 23:55:43;;;;;;;5.57;3.22;;;;;;;;;;9966375;28;20051;-72
